createdAt,value
2018-01-03T00:04:32.946Z,92.7
2018-01-03T00:09:32.972Z,92.6
2018-01-03T00:14:42.830Z,93.5
2018-01-03T00:19:32.920Z,93.4
2018-01-03T00:24:32.931Z,93.1
2018-01-03T00:29:32.977Z,93.2
2018-01-03T00:34:32.892Z,93.3
2018-01-03T00:39:32.808Z,93.1
2018-01-03T00:44:32.780Z,93.8
2018-01-03T00:49:32.873Z,93.1
2018-01-03T00:54:32.800Z,91.7
2018-01-03T00:59:32.797Z,92.9
2018-01-03T01:04:32.837Z,92.9
2018-01-03T01:09:32.793Z,93
2018-01-03T01:14:32.935Z,93.4
2018-01-03T01:19:32.969Z,92
2018-01-03T01:24:33.017Z,92
2018-01-03T01:29:32.913Z,92.8
2018-01-03T01:34:32.902Z,92.2
2018-01-03T01:39:32.975Z,92.5
2018-01-03T01:44:32.822Z,92.3
2018-01-03T01:49:32.835Z,93.9
2018-01-03T01:54:32.973Z,93.3
2018-01-03T01:59:32.813Z,93
2018-01-03T02:04:32.821Z,93.2
2018-01-03T02:09:32.992Z,94.4
2018-01-03T02:14:32.829Z,93.6
2018-01-03T02:19:33.011Z,93.5
2018-01-03T02:24:32.842Z,93.7
2018-01-03T02:29:32.994Z,93
2018-01-03T02:34:33.001Z,93.2
2018-01-03T02:39:33.049Z,93.9
2018-01-03T02:44:33.053Z,92.8
2018-01-03T02:49:32.987Z,92.6
2018-01-03T02:54:33.023Z,92.8
2018-01-03T02:59:33.052Z,92
2018-01-03T03:04:32.972Z,93.6
2018-01-03T03:09:33.020Z,92.7
2018-01-03T03:14:33.061Z,93.8
2018-01-03T03:19:32.966Z,93.9
2018-01-03T03:24:33.026Z,93.4
2018-01-03T03:29:32.892Z,93.6
2018-01-03T03:34:33.070Z,93.4
2018-01-03T03:39:32.987Z,93.5
2018-01-03T03:44:33.019Z,93.9
2018-01-03T03:49:33.163Z,95.3
2018-01-03T03:54:33.091Z,94.6
2018-01-03T03:59:33.014Z,93.1
2018-01-03T04:04:32.967Z,93.8
2018-01-03T04:09:33.000Z,93.7
2018-01-03T04:14:32.998Z,93.8
2018-01-03T04:19:32.910Z,93.8
2018-01-03T04:24:33.073Z,93.2
2018-01-03T04:29:32.908Z,94.1
2018-01-03T04:34:32.920Z,94.7
2018-01-03T04:39:33.041Z,94.3
2018-01-03T04:44:32.990Z,94.3
2018-01-03T04:49:32.984Z,94.9
2018-01-03T04:54:32.937Z,94.6
2018-01-03T04:59:32.936Z,95.4
2018-01-03T05:04:32.984Z,95.4
2018-01-03T05:09:32.960Z,95.1
2018-01-03T05:14:33.061Z,95.7
2018-01-03T05:19:42.293Z,96
2018-01-03T05:24:39.611Z,95.1
2018-01-03T05:29:42.785Z,96.1
2018-01-03T05:34:42.494Z,95.9
2018-01-03T05:39:40.888Z,98
2018-01-03T05:44:42.591Z,98.3
2018-01-03T05:49:43.155Z,97.1
2018-01-03T05:54:40.411Z,96.9
2018-01-03T05:59:33.245Z,96
2018-01-03T06:04:33.050Z,95.6
2018-01-03T06:09:33.200Z,94.4
2018-01-03T06:14:33.267Z,94
2018-01-03T06:19:33.277Z,94.9
2018-01-03T06:24:33.067Z,95.4
2018-01-03T06:29:33.208Z,95.8
2018-01-03T06:34:33.226Z,95.5
2018-01-03T06:39:33.153Z,96.2
2018-01-03T06:44:33.243Z,96.5
2018-01-03T06:49:33.233Z,96.2
2018-01-03T06:54:33.310Z,96.4
2018-01-03T06:59:33.184Z,95.8
2018-01-03T07:04:33.100Z,95.9
2018-01-03T07:09:33.255Z,96.5
2018-01-03T07:14:33.279Z,96.4
2018-01-03T07:19:33.111Z,95.8
2018-01-03T07:24:33.231Z,96
2018-01-03T07:29:33.124Z,96.3
2018-01-03T07:34:33.118Z,97.1
2018-01-03T07:39:33.213Z,97
2018-01-03T07:44:33.104Z,97.1
2018-01-03T07:49:33.109Z,97.3
2018-01-03T07:54:33.116Z,97.7
2018-01-03T07:59:33.105Z,97.6
2018-01-03T08:04:33.102Z,97.7
2018-01-03T08:09:33.215Z,96.8
2018-01-03T08:14:33.127Z,96.9
2018-01-03T08:19:33.503Z,97.2
2018-01-03T08:24:34.748Z,98.8
2018-01-03T08:29:33.680Z,97.3
2018-01-03T08:34:33.495Z,97.3
2018-01-03T08:39:33.481Z,97.2
2018-01-03T08:44:33.496Z,97.5
2018-01-03T08:49:33.739Z,98.5
2018-01-03T08:54:33.723Z,97.7
2018-01-03T08:59:33.501Z,97.2
2018-01-03T09:04:33.507Z,97.3
2018-01-03T09:09:33.513Z,97.5
2018-01-03T09:14:33.506Z,98.2
2018-01-03T09:19:33.510Z,97.7
2018-01-03T09:24:33.523Z,99
2018-01-03T09:29:33.676Z,98.7
2018-01-03T09:34:33.643Z,99.2
2018-01-03T09:39:33.514Z,98.8
2018-01-03T09:44:33.730Z,98.2
2018-01-03T09:49:33.523Z,97.8
2018-01-03T09:54:33.624Z,97.5
2018-01-03T09:59:33.522Z,97.5
2018-01-03T10:04:33.701Z,97.1
2018-01-03T10:09:33.827Z,97.3
2018-01-03T10:14:33.685Z,97.4
2018-01-03T10:19:33.566Z,98.3
2018-01-03T10:24:33.721Z,98.8
2018-01-03T10:29:33.661Z,97.6
2018-01-03T10:34:33.664Z,98
2018-01-03T10:39:33.794Z,98.1
2018-01-03T10:44:34.538Z,98.9
2018-01-03T10:49:33.562Z,98.3
2018-01-03T10:54:33.919Z,98.1
2018-01-03T10:59:33.721Z,99.1
2018-01-03T11:04:33.978Z,98.6
2018-01-03T11:09:33.680Z,98.6
2018-01-03T11:14:33.663Z,98.9
2018-01-03T11:19:34.651Z,99.9
2018-01-03T11:24:33.580Z,100
2018-01-03T11:29:34.055Z,100
2018-01-03T11:34:35.334Z,100
2018-01-03T11:39:33.941Z,100
2018-01-03T11:44:33.680Z,100
2018-01-03T11:49:33.611Z,100
2018-01-03T11:54:33.876Z,100
2018-01-03T11:59:35.541Z,100
2018-01-03T12:04:34.354Z,100
2018-01-03T12:09:33.777Z,100
2018-01-03T12:14:33.622Z,100
2018-01-03T12:19:33.694Z,100
2018-01-03T12:24:33.644Z,100
2018-01-03T12:29:33.642Z,100
2018-01-03T12:34:33.789Z,100
2018-01-03T12:39:33.607Z,100
2018-01-03T12:44:33.762Z,100
2018-01-03T12:49:34.555Z,100
2018-01-03T12:54:35.953Z,98.3
2018-01-03T12:59:34.540Z,98.9
2018-01-03T13:04:33.771Z,98.9
2018-01-03T13:09:34.315Z,99.2
2018-01-03T13:14:33.960Z,97.3
2018-01-03T13:19:34.110Z,97.5
2018-01-03T13:24:33.726Z,98
2018-01-03T13:29:33.723Z,98.1
2018-01-03T13:34:34.270Z,97.2
2018-01-03T13:39:34.797Z,97.3
2018-01-03T13:44:43.642Z,97.8
2018-01-03T13:49:33.830Z,98.1
2018-01-03T13:54:33.781Z,97.3
2018-01-03T13:59:33.685Z,97.3
2018-01-03T14:04:35.135Z,95.6
2018-01-03T14:09:33.702Z,95.1
2018-01-03T14:14:33.691Z,95.9
2018-01-03T14:19:33.701Z,95.3
2018-01-03T14:24:33.684Z,93.6
2018-01-03T14:29:33.682Z,91.7
2018-01-03T14:34:33.824Z,90.7
2018-01-03T14:39:33.863Z,89.2
2018-01-03T14:44:33.697Z,88
2018-01-03T14:49:33.849Z,86.5
2018-01-03T14:54:33.753Z,85.2
2018-01-03T14:59:34.271Z,86.3
2018-01-03T15:04:34.045Z,84.5
2018-01-03T15:09:33.908Z,84.2
2018-01-03T15:14:33.832Z,84
2018-01-03T15:19:33.860Z,84.8
2018-01-03T15:24:33.825Z,84.1
2018-01-03T15:29:33.684Z,83.5
2018-01-03T15:34:33.961Z,83.3
2018-01-03T15:39:33.900Z,82.5
2018-01-03T15:44:33.792Z,82.2
2018-01-03T15:49:33.699Z,81.8
2018-01-03T15:54:33.873Z,82.6
2018-01-03T15:59:33.714Z,80.3
2018-01-03T16:04:33.705Z,81.7
2018-01-03T16:09:33.744Z,81.8
2018-01-03T16:14:33.733Z,80.8
2018-01-03T16:19:33.822Z,80.4
2018-01-03T16:24:33.865Z,78.6
2018-01-03T16:29:33.880Z,78.3
2018-01-03T16:34:33.714Z,77
2018-01-03T16:39:33.952Z,76
2018-01-03T16:44:33.825Z,75.1
2018-01-03T16:49:34.019Z,75.8
2018-01-03T16:54:33.940Z,76.5
2018-01-03T16:59:33.898Z,75.5
2018-01-03T17:04:33.894Z,75
2018-01-03T17:09:33.760Z,74.4
2018-01-03T17:14:33.745Z,73
2018-01-03T17:19:33.949Z,72.7
2018-01-03T17:24:33.859Z,73.6
2018-01-03T17:29:33.852Z,71.5
2018-01-03T17:34:33.768Z,72.2
2018-01-03T17:39:33.891Z,72.8
2018-01-03T17:44:33.791Z,72.5
2018-01-03T17:49:34.034Z,72.6
2018-01-03T17:54:35.594Z,71.5
2018-01-03T17:59:33.775Z,71
2018-01-03T18:04:35.656Z,70.8
2018-01-03T18:09:38.614Z,70.1
2018-01-03T18:14:34.263Z,70.5
2018-01-03T18:19:33.827Z,70.6
2018-01-03T18:24:33.841Z,70.3
2018-01-03T18:29:33.797Z,69.7
2018-01-03T18:34:34.385Z,68.7
2018-01-03T18:39:33.830Z,68.4
2018-01-03T18:44:36.755Z,69.3
2018-01-03T18:49:34.047Z,67.7
2018-01-03T18:54:35.655Z,69
2018-01-03T18:59:34.078Z,68.6
2018-01-03T19:04:34.006Z,67.6
2018-01-03T19:09:33.944Z,67.6
2018-01-03T19:14:33.823Z,66.8
2018-01-03T19:19:35.251Z,66.9
2018-01-03T19:24:34.107Z,66.6
2018-01-03T19:29:33.878Z,67.4
2018-01-03T19:34:33.871Z,66.5
2018-01-03T19:39:34.133Z,66.7
2018-01-03T19:44:33.929Z,66.3
2018-01-03T19:49:33.867Z,66.7
2018-01-03T19:54:34.315Z,67.3
2018-01-03T19:59:34.949Z,66
2018-01-03T20:04:33.876Z,65.4
2018-01-03T20:09:33.968Z,64.8
2018-01-03T20:14:34.007Z,64.7
2018-01-03T20:19:33.958Z,64.8
2018-01-03T20:24:34.054Z,65.1
2018-01-03T20:29:34.174Z,65.3
2018-01-03T20:34:34.194Z,64.9
2018-01-03T20:39:34.350Z,63.8
2018-01-03T20:44:47.193Z,64.6
2018-01-03T20:49:42.992Z,64.3
2018-01-03T20:54:34.295Z,65.1
2018-01-03T20:59:46.414Z,63.5
2018-01-03T21:04:34.860Z,63.6
2018-01-03T21:09:33.977Z,62.8
2018-01-03T21:14:34.719Z,61.4
2018-01-03T21:19:34.057Z,62
2018-01-03T21:24:36.962Z,61.3
2018-01-03T21:29:35.079Z,61.6
2018-01-03T21:34:34.244Z,61.8
2018-01-03T21:39:34.089Z,62.3
2018-01-03T21:44:33.920Z,60.9
2018-01-03T21:49:34.002Z,62.2
2018-01-03T21:54:34.835Z,62.5
2018-01-03T21:59:33.992Z,63.5
2018-01-03T22:04:33.948Z,63.8
2018-01-03T22:09:33.909Z,62.9
2018-01-03T22:14:34.446Z,63.6
2018-01-03T22:19:33.962Z,62.9
2018-01-03T22:24:34.151Z,63
2018-01-03T22:29:33.935Z,62.2
2018-01-03T22:34:34.085Z,63.2
2018-01-03T22:39:33.960Z,63
2018-01-03T22:44:33.949Z,62.3
2018-01-03T22:49:34.139Z,62.2
2018-01-03T22:54:34.102Z,61.4
2018-01-03T22:59:34.085Z,61.8
2018-01-03T23:04:34.214Z,61.3
2018-01-03T23:09:33.915Z,61.1
2018-01-03T23:14:34.139Z,61.6
2018-01-03T23:19:33.946Z,61.1
2018-01-03T23:24:34.061Z,61.3
2018-01-03T23:29:33.979Z,60.8
2018-01-03T23:34:33.967Z,63.3
2018-01-03T23:39:33.963Z,66.8
2018-01-03T23:44:34.090Z,65.9
2018-01-03T23:49:34.131Z,65.6
2018-01-03T23:54:34.186Z,64.4
2018-01-03T23:59:34.058Z,64.7
